createdAt,value
2022-10-18T00:00:19.219Z,8.00
2022-10-18T00:02:45.926Z,9.90
2022-10-18T00:05:12.634Z,8.10
2022-10-18T00:07:39.260Z,8.60
2022-10-18T00:10:06.974Z,8.60
2022-10-18T00:12:36.480Z,7.20
2022-10-18T00:15:06.872Z,8.10
2022-10-18T00:17:39.024Z,8.80
2022-10-18T00:20:06.983Z,10.30
2022-10-18T00:22:39.951Z,10.10
2022-10-18T00:25:08.722Z,9.10
2022-10-18T00:27:36.259Z,8.90
2022-10-18T00:30:03.687Z,8.80
2022-10-18T00:32:30.490Z,9.00
2022-10-18T00:34:57.367Z,8.70
2022-10-18T00:37:24.007Z,12.30
2022-10-18T00:42:26.809Z,10.60
2022-10-18T00:45:23.072Z,9.00
2022-10-18T00:48:01.521Z,9.20
2022-10-18T00:50:32.364Z,9.30
2022-10-18T00:53:03.922Z,7.80
2022-10-18T00:55:33.272Z,8.60
2022-10-18T00:58:01.359Z,9.40
2022-10-18T01:00:28.068Z,9.90
2022-10-18T01:02:55.408Z,9.90
2022-10-18T01:05:22.128Z,10.80
2022-10-18T01:08:37.431Z,7.10
2022-10-18T01:11:29.277Z,9.90
2022-10-18T01:14:16.780Z,8.50
2022-10-18T01:17:14.790Z,8.80
2022-10-18T01:20:18.985Z,8.50
2022-10-18T01:22:56.792Z,10.30
2022-10-18T01:25:55.800Z,7.70
2022-10-18T01:28:50.343Z,7.10
2022-10-18T01:31:25.695Z,10.60
2022-10-18T01:36:48.949Z,10.40
2022-10-18T01:39:27.985Z,8.30
2022-10-18T01:41:58.635Z,9.80
2022-10-18T01:44:30.415Z,8.60
2022-10-18T01:46:59.489Z,8.10
2022-10-18T01:49:26.997Z,9.10
2022-10-18T01:51:54.135Z,9.00
2022-10-18T01:54:33.302Z,9.60
2022-10-18T01:57:39.176Z,9.40
2022-10-18T02:00:15.073Z,7.20
2022-10-18T02:02:47.864Z,10.30
2022-10-18T02:05:44.144Z,9.10
2022-10-18T02:08:44.212Z,8.90
2022-10-18T02:11:15.059Z,8.30
2022-10-18T02:13:56.633Z,9.20
2022-10-18T02:16:37.595Z,10.20
2022-10-18T02:21:58.081Z,9.30
2022-10-18T02:24:35.509Z,9.40
2022-10-18T02:27:02.997Z,10.50
2022-10-18T02:29:31.211Z,8.70
2022-10-18T02:32:50.412Z,8.30
2022-10-18T02:35:35.057Z,7.90
2022-10-18T02:38:04.318Z,7.70
2022-10-18T02:40:31.645Z,7.10
2022-10-18T02:42:59.421Z,8.90
2022-10-18T02:45:27.014Z,10.60
2022-10-18T02:47:53.848Z,7.20
2022-10-18T02:50:20.593Z,7.20
2022-10-18T02:52:47.276Z,7.90
2022-10-18T02:55:13.940Z,9.40
2022-10-18T02:57:40.668Z,9.00
2022-10-18T03:00:08.704Z,8.30
2022-10-18T03:02:35.589Z,7.50
2022-10-18T03:05:02.360Z,8.60
2022-10-18T03:07:29.382Z,9.70
2022-10-18T03:09:56.115Z,11.00
2022-10-18T03:12:23.293Z,7.90
2022-10-18T03:14:49.952Z,7.40
2022-10-18T03:17:16.585Z,9.50
2022-10-18T03:19:43.315Z,9.10
2022-10-18T03:22:09.982Z,9.10
2022-10-18T03:24:36.660Z,9.90
2022-10-18T03:27:03.697Z,8.60
2022-10-18T03:29:30.507Z,8.70
2022-10-18T03:31:57.170Z,10.00
2022-10-18T03:34:23.875Z,9.00
2022-10-18T03:36:50.499Z,9.30
2022-10-18T03:39:17.252Z,9.10
2022-10-18T03:41:43.822Z,8.00
2022-10-18T03:44:10.449Z,8.00
2022-10-18T03:46:37.206Z,8.40
2022-10-18T03:49:03.906Z,7.70
2022-10-18T03:51:30.558Z,9.60
2022-10-18T03:53:57.206Z,9.00
2022-10-18T03:56:23.834Z,9.50
2022-10-18T03:58:50.401Z,11.30
2022-10-18T04:01:17.077Z,10.00
2022-10-18T04:03:43.806Z,10.70
2022-10-18T04:06:10.446Z,8.30
2022-10-18T04:08:37.196Z,9.80
2022-10-18T04:11:08.465Z,10.60
2022-10-18T04:13:35.790Z,11.50
2022-10-18T04:16:02.703Z,9.10
2022-10-18T04:18:29.631Z,9.30
2022-10-18T04:20:56.434Z,9.80
2022-10-18T04:23:23.104Z,8.80
2022-10-18T04:25:49.720Z,7.60
2022-10-18T04:28:16.381Z,11.00
2022-10-18T04:30:43.045Z,8.40
2022-10-18T04:33:09.655Z,10.50
2022-10-18T04:35:36.764Z,11.80
2022-10-18T04:38:03.429Z,9.40
2022-10-18T04:40:30.042Z,11.40
2022-10-18T04:42:56.641Z,9.40
2022-10-18T04:45:23.276Z,10.70
2022-10-18T04:47:49.955Z,11.50
2022-10-18T04:50:16.884Z,10.00
2022-10-18T04:52:43.575Z,11.90
2022-10-18T04:55:10.304Z,10.30
2022-10-18T04:57:37.197Z,12.30
2022-10-18T05:00:05.476Z,13.90
2022-10-18T05:02:32.377Z,12.50
2022-10-18T05:04:59.167Z,11.60
2022-10-18T05:07:25.866Z,12.40
2022-10-18T05:09:52.567Z,11.90
2022-10-18T05:12:19.334Z,11.40
2022-10-18T05:14:45.939Z,12.70
2022-10-18T05:17:12.636Z,12.70
2022-10-18T05:19:39.260Z,11.90
2022-10-18T05:22:06.189Z,12.70
2022-10-18T05:24:32.852Z,11.40
2022-10-18T05:26:59.579Z,9.90
2022-10-18T05:31:57.828Z,10.70
2022-10-18T05:34:24.781Z,12.00
2022-10-18T05:36:51.542Z,9.60
2022-10-18T05:39:18.223Z,11.50
2022-10-18T05:41:44.967Z,12.10
2022-10-18T05:44:11.541Z,9.70
2022-10-18T05:46:38.267Z,12.80
2022-10-18T05:49:04.937Z,12.10
2022-10-18T05:51:31.662Z,12.80
2022-10-18T05:53:58.851Z,16.00
2022-10-18T05:56:25.701Z,11.10
2022-10-18T05:58:52.978Z,12.30
2022-10-18T06:01:20.703Z,14.70
2022-10-18T06:03:48.247Z,13.10
2022-10-18T06:06:15.360Z,16.50
2022-10-18T06:08:44.202Z,15.00
2022-10-18T06:11:15.220Z,15.90
2022-10-18T06:13:51.253Z,15.20
2022-10-18T06:16:23.012Z,17.10
2022-10-18T06:18:56.850Z,17.70
2022-10-18T06:21:25.159Z,16.60
2022-10-18T06:23:55.239Z,21.70
2022-10-18T06:26:22.652Z,19.10
2022-10-18T06:28:50.015Z,16.00
2022-10-18T06:31:17.154Z,22.50
2022-10-18T06:33:43.912Z,17.70
2022-10-18T06:36:15.017Z,19.60
2022-10-18T06:38:41.715Z,18.90
2022-10-18T06:41:09.225Z,15.30
2022-10-18T06:43:36.490Z,16.00
2022-10-18T06:46:06.860Z,15.40
2022-10-18T06:48:36.288Z,20.50
2022-10-18T06:51:06.853Z,15.50
2022-10-18T06:53:44.221Z,13.70
2022-10-18T06:56:20.078Z,17.20
2022-10-18T06:58:46.920Z,19.40
2022-10-18T07:01:17.371Z,18.80
2022-10-18T07:06:04.869Z,16.40
2022-10-18T07:08:32.182Z,14.20
2022-10-18T07:10:59.181Z,14.90
2022-10-18T07:13:33.660Z,16.90
2022-10-18T07:16:17.298Z,17.70
2022-10-18T07:18:51.402Z,23.20
2022-10-18T07:21:22.894Z,19.90
2022-10-18T07:23:51.699Z,20.80
2022-10-18T07:26:22.889Z,20.90
2022-10-18T07:28:57.964Z,19.30
2022-10-18T07:45:05.951Z,18.50
2022-10-18T07:47:35.362Z,21.40
2022-10-18T07:50:20.551Z,22.10
2022-10-18T07:52:48.881Z,18.70
2022-10-18T07:55:16.551Z,22.30
2022-10-18T07:57:44.126Z,23.20
2022-10-18T08:00:12.721Z,24.80
2022-10-18T08:02:39.554Z,26.30
2022-10-18T08:05:08.072Z,28.30
2022-10-18T08:07:36.491Z,31.60
2022-10-18T08:10:04.188Z,32.50
2022-10-18T08:12:31.085Z,35.70
2022-10-18T08:14:58.596Z,36.10
2022-10-18T08:17:25.436Z,34.10
2022-10-18T08:20:11.451Z,34.20
2022-10-18T08:22:39.247Z,38.20
2022-10-18T08:25:06.936Z,35.60
2022-10-18T08:27:33.954Z,39.10
2022-10-18T08:30:02.254Z,32.50
2022-10-18T08:32:29.590Z,43.30
2022-10-18T08:34:56.542Z,37.70
2022-10-18T08:37:23.216Z,39.20
2022-10-18T08:39:50.167Z,35.60
2022-10-18T08:42:35.953Z,38.90
2022-10-18T08:45:12.755Z,37.60
2022-10-18T08:47:49.234Z,36.00
2022-10-18T08:50:23.236Z,40.70
2022-10-18T08:53:15.381Z,38.10
2022-10-18T08:55:46.929Z,31.30
2022-10-18T08:58:24.705Z,38.20
2022-10-18T09:01:02.753Z,37.10
2022-10-18T09:03:37.467Z,34.10
2022-10-18T09:06:29.510Z,38.80
2022-10-18T09:09:36.480Z,35.30
2022-10-18T09:13:00.360Z,41.30
2022-10-18T09:45:54.799Z,37.60
2022-10-18T09:48:35.159Z,32.60
2022-10-18T09:51:19.770Z,33.40
2022-10-18T09:54:20.074Z,27.20
2022-10-18T09:57:24.969Z,30.50
2022-10-18T09:59:51.821Z,32.00
2022-10-18T10:02:26.635Z,25.60
2022-10-18T10:04:57.579Z,29.40
2022-10-18T10:07:36.394Z,31.00
2022-10-18T10:10:12.030Z,36.40
2022-10-18T10:12:40.720Z,26.30
2022-10-18T10:15:38.202Z,31.10
2022-10-18T10:18:22.022Z,33.10
2022-10-18T10:20:54.880Z,28.20
2022-10-18T10:23:37.699Z,26.20
2022-10-18T10:26:22.988Z,26.60
2022-10-18T10:28:50.728Z,26.30
2022-10-18T10:34:30.948Z,23.00
2022-10-18T10:36:59.033Z,28.00
2022-10-18T10:39:28.201Z,25.10
2022-10-18T10:42:00.408Z,24.40
2022-10-18T10:44:37.069Z,20.70
2022-10-18T10:47:06.847Z,22.80
2022-10-18T10:49:47.929Z,26.50
2022-10-18T10:52:29.449Z,23.40
2022-10-18T10:55:33.975Z,27.70
2022-10-18T10:57:52.433Z,27.00
2022-10-18T11:00:58.311Z,26.80
2022-10-18T11:03:36.031Z,20.30
2022-10-18T11:06:03.715Z,23.00
2022-10-18T11:08:41.853Z,26.40
2022-10-18T11:11:31.209Z,24.80
2022-10-18T11:14:27.141Z,22.40
2022-10-18T11:17:08.387Z,26.00
2022-10-18T11:19:52.877Z,22.40
2022-10-18T11:22:25.626Z,20.00
2022-10-18T11:24:52.705Z,19.40
2022-10-18T11:27:46.657Z,25.60
2022-10-18T11:30:41.283Z,20.30
2022-10-18T11:34:14.152Z,23.90
2022-10-18T11:37:33.424Z,21.00
2022-10-18T11:40:42.331Z,20.00
2022-10-18T11:44:01.611Z,18.20
2022-10-18T11:47:15.711Z,21.00
2022-10-18T11:49:59.192Z,16.30
2022-10-18T11:52:59.014Z,16.60
2022-10-18T11:56:36.630Z,10.40
2022-10-18T11:59:28.230Z,9.90
2022-10-18T12:05:22.719Z,12.60
2022-10-18T12:08:07.227Z,15.30
2022-10-18T12:10:45.771Z,12.80
2022-10-18T12:13:36.749Z,15.30
2022-10-18T12:16:08.408Z,11.10
2022-10-18T12:18:47.181Z,13.10
2022-10-18T12:21:14.289Z,11.60
2022-10-18T12:24:01.399Z,10.10
2022-10-18T12:26:30.321Z,11.50
2022-10-18T12:29:12.069Z,11.50
2022-10-18T12:32:15.157Z,9.40
2022-10-18T12:34:50.557Z,10.10
2022-10-18T12:37:48.165Z,13.70
2022-10-18T12:40:24.490Z,12.30
2022-10-18T12:42:53.426Z,10.50
2022-10-18T12:45:27.369Z,11.00
2022-10-18T12:48:00.032Z,13.10
2022-10-18T12:50:50.840Z,11.50
2022-10-18T12:53:26.679Z,13.10
2022-10-18T12:55:54.959Z,11.10
2022-10-18T12:58:31.666Z,11.40
2022-10-18T13:01:05.521Z,13.30
2022-10-18T13:03:51.702Z,9.50
